sensor_id;sensor_type;location;lat;lon;timestamp;temperature;humidity
21891;DHT22;11110;52.386;16.940;2022-12-18T00:00:21;13.40;37.70
21891;DHT22;11110;52.386;16.940;2022-12-18T00:03:14;13.10;37.70
21891;DHT22;11110;52.386;16.940;2022-12-18T00:05:46;13.20;37.60
21891;DHT22;11110;52.386;16.940;2022-12-18T00:08:16;13.00;37.90
21891;DHT22;11110;52.386;16.940;2022-12-18T00:10:45;13.00;38.10
21891;DHT22;11110;52.386;16.940;2022-12-18T00:13:14;12.90;38.00
21891;DHT22;11110;52.386;16.940;2022-12-18T00:15:42;13.00;38.00
21891;DHT22;11110;52.386;16.940;2022-12-18T00:18:11;12.90;37.90
21891;DHT22;11110;52.386;16.940;2022-12-18T00:20:46;13.00;37.90
21891;DHT22;11110;52.386;16.940;2022-12-18T00:23:15;13.10;37.90
21891;DHT22;11110;52.386;16.940;2022-12-18T00:25:43;12.80;37.80
21891;DHT22;11110;52.386;16.940;2022-12-18T00:28:12;12.80;37.80
21891;DHT22;11110;52.386;16.940;2022-12-18T00:30:40;12.80;37.70
21891;DHT22;11110;52.386;16.940;2022-12-18T00:33:09;12.80;37.60
21891;DHT22;11110;52.386;16.940;2022-12-18T00:35:37;12.60;37.90
21891;DHT22;11110;52.386;16.940;2022-12-18T00:38:07;12.60;37.90
21891;DHT22;11110;52.386;16.940;2022-12-18T00:40:35;12.70;37.80
21891;DHT22;11110;52.386;16.940;2022-12-18T00:43:04;12.70;37.90
21891;DHT22;11110;52.386;16.940;2022-12-18T00:45:31;12.70;37.90
21891;DHT22;11110;52.386;16.940;2022-12-18T00:48:00;12.60;37.90
21891;DHT22;11110;52.386;16.940;2022-12-18T00:50:28;12.70;37.90
21891;DHT22;11110;52.386;16.940;2022-12-18T00:52:57;12.70;37.80
21891;DHT22;11110;52.386;16.940;2022-12-18T00:55:27;12.70;37.80
21891;DHT22;11110;52.386;16.940;2022-12-18T00:57:56;12.70;37.60
21891;DHT22;11110;52.386;16.940;2022-12-18T01:00:25;12.70;37.30
21891;DHT22;11110;52.386;16.940;2022-12-18T01:02:53;12.70;37.20
21891;DHT22;11110;52.386;16.940;2022-12-18T01:05:23;12.60;37.30
21891;DHT22;11110;52.386;16.940;2022-12-18T01:07:52;12.50;37.50
21891;DHT22;11110;52.386;16.940;2022-12-18T01:10:21;12.50;37.70
21891;DHT22;11110;52.386;16.940;2022-12-18T01:12:52;12.50;37.60
21891;DHT22;11110;52.386;16.940;2022-12-18T01:15:20;12.50;37.70
21891;DHT22;11110;52.386;16.940;2022-12-18T01:17:51;12.50;37.60
21891;DHT22;11110;52.386;16.940;2022-12-18T01:20:21;12.40;37.50
21891;DHT22;11110;52.386;16.940;2022-12-18T01:22:49;12.40;37.40
21891;DHT22;11110;52.386;16.940;2022-12-18T01:25:18;12.40;37.40
21891;DHT22;11110;52.386;16.940;2022-12-18T01:27:47;12.40;37.40
21891;DHT22;11110;52.386;16.940;2022-12-18T01:30:17;12.40;37.30
21891;DHT22;11110;52.386;16.940;2022-12-18T01:32:46;12.40;37.20
21891;DHT22;11110;52.386;16.940;2022-12-18T01:35:14;12.30;37.30
21891;DHT22;11110;52.386;16.940;2022-12-18T01:37:43;12.40;37.20
21891;DHT22;11110;52.386;16.940;2022-12-18T01:40:12;12.40;37.20
21891;DHT22;11110;52.386;16.940;2022-12-18T01:42:40;12.20;37.80
21891;DHT22;11110;52.386;16.940;2022-12-18T01:45:27;12.10;37.20
21891;DHT22;11110;52.386;16.940;2022-12-18T01:47:59;12.10;37.20
21891;DHT22;11110;52.386;16.940;2022-12-18T01:50:31;12.10;37.20
21891;DHT22;11110;52.386;16.940;2022-12-18T01:53:05;12.10;37.30
21891;DHT22;11110;52.386;16.940;2022-12-18T01:55:37;12.00;37.30
21891;DHT22;11110;52.386;16.940;2022-12-18T01:58:07;12.00;37.40
21891;DHT22;11110;52.386;16.940;2022-12-18T02:00:37;12.00;37.40
21891;DHT22;11110;52.386;16.940;2022-12-18T02:03:06;12.10;37.30
21891;DHT22;11110;52.386;16.940;2022-12-18T02:05:42;12.10;37.30
21891;DHT22;11110;52.386;16.940;2022-12-18T02:08:17;12.00;37.40
21891;DHT22;11110;52.386;16.940;2022-12-18T02:10:54;11.90;37.30
21891;DHT22;11110;52.386;16.940;2022-12-18T02:13:30;12.00;37.40
21891;DHT22;11110;52.386;16.940;2022-12-18T02:16:07;11.90;37.40
21891;DHT22;11110;52.386;16.940;2022-12-18T02:18:43;11.90;37.40
21891;DHT22;11110;52.386;16.940;2022-12-18T02:21:22;11.90;37.50
21891;DHT22;11110;52.386;16.940;2022-12-18T02:23:59;11.90;37.60
21891;DHT22;11110;52.386;16.940;2022-12-18T02:26:36;11.80;37.50
21891;DHT22;11110;52.386;16.940;2022-12-18T02:29:10;11.90;37.40
21891;DHT22;11110;52.386;16.940;2022-12-18T02:31:44;11.90;37.50
21891;DHT22;11110;52.386;16.940;2022-12-18T02:34:14;11.90;37.50
21891;DHT22;11110;52.386;16.940;2022-12-18T02:36:46;11.90;37.40
21891;DHT22;11110;52.386;16.940;2022-12-18T02:39:17;11.80;37.40
21891;DHT22;11110;52.386;16.940;2022-12-18T02:42:02;11.80;37.40
21891;DHT22;11110;52.386;16.940;2022-12-18T02:44:35;11.80;37.20
21891;DHT22;11110;52.386;16.940;2022-12-18T02:47:10;11.80;37.10
21891;DHT22;11110;52.386;16.940;2022-12-18T02:49:47;11.80;37.00
21891;DHT22;11110;52.386;16.940;2022-12-18T02:52:24;11.70;37.10
21891;DHT22;11110;52.386;16.940;2022-12-18T02:55:08;11.60;37.30
21891;DHT22;11110;52.386;16.940;2022-12-18T02:57:48;11.60;37.50
21891;DHT22;11110;52.386;16.940;2022-12-18T03:00:24;11.60;37.60
21891;DHT22;11110;52.386;16.940;2022-12-18T03:02:59;11.70;37.60
21891;DHT22;11110;52.386;16.940;2022-12-18T03:05:36;11.70;37.60
21891;DHT22;11110;52.386;16.940;2022-12-18T03:08:08;11.80;37.60
21891;DHT22;11110;52.386;16.940;2022-12-18T03:10:42;11.60;37.60
21891;DHT22;11110;52.386;16.940;2022-12-18T03:13:21;11.70;37.60
21891;DHT22;11110;52.386;16.940;2022-12-18T03:15:56;11.50;37.50
21891;DHT22;11110;52.386;16.940;2022-12-18T03:18:27;11.50;37.70
21891;DHT22;11110;52.386;16.940;2022-12-18T03:21:02;11.50;37.80
21891;DHT22;11110;52.386;16.940;2022-12-18T03:23:36;11.60;37.80
21891;DHT22;11110;52.386;16.940;2022-12-18T03:26:10;11.50;37.80
21891;DHT22;11110;52.386;16.940;2022-12-18T03:28:45;11.60;37.70
21891;DHT22;11110;52.386;16.940;2022-12-18T03:31:15;11.50;37.80
21891;DHT22;11110;52.386;16.940;2022-12-18T03:33:46;11.50;37.90
21891;DHT22;11110;52.386;16.940;2022-12-18T03:36:17;11.50;37.80
21891;DHT22;11110;52.386;16.940;2022-12-18T03:38:47;11.50;37.80
21891;DHT22;11110;52.386;16.940;2022-12-18T03:41:23;11.50;37.80
21891;DHT22;11110;52.386;16.940;2022-12-18T03:44:21;11.50;37.70
21891;DHT22;11110;52.386;16.940;2022-12-18T03:46:58;11.50;37.80
21891;DHT22;11110;52.386;16.940;2022-12-18T03:49:34;11.50;37.80
21891;DHT22;11110;52.386;16.940;2022-12-18T03:52:10;11.50;37.80
21891;DHT22;11110;52.386;16.940;2022-12-18T03:54:41;11.50;37.80
21891;DHT22;11110;52.386;16.940;2022-12-18T03:57:17;11.50;37.90
21891;DHT22;11110;52.386;16.940;2022-12-18T03:59:51;11.50;37.90
21891;DHT22;11110;52.386;16.940;2022-12-18T04:02:24;11.50;37.90
21891;DHT22;11110;52.386;16.940;2022-12-18T04:04:58;11.50;37.90
21891;DHT22;11110;52.386;16.940;2022-12-18T04:07:28;11.50;37.90
21891;DHT22;11110;52.386;16.940;2022-12-18T04:09:59;11.90;38.20
21891;DHT22;11110;52.386;16.940;2022-12-18T04:12:31;11.50;38.00
21891;DHT22;11110;52.386;16.940;2022-12-18T04:15:01;11.60;38.70
21891;DHT22;11110;52.386;16.940;2022-12-18T04:17:30;11.60;38.00
21891;DHT22;11110;52.386;16.940;2022-12-18T04:19:58;11.60;37.90
21891;DHT22;11110;52.386;16.940;2022-12-18T04:22:27;11.60;38.00
21891;DHT22;11110;52.386;16.940;2022-12-18T04:24:59;11.60;37.90
21891;DHT22;11110;52.386;16.940;2022-12-18T04:27:35;11.60;37.90
21891;DHT22;11110;52.386;16.940;2022-12-18T04:30:07;11.60;37.90
21891;DHT22;11110;52.386;16.940;2022-12-18T04:32:36;11.70;38.00
21891;DHT22;11110;52.386;16.940;2022-12-18T04:35:05;11.60;38.00
21891;DHT22;11110;52.386;16.940;2022-12-18T04:37:39;11.70;37.90
21891;DHT22;11110;52.386;16.940;2022-12-18T04:40:08;11.70;37.90
21891;DHT22;11110;52.386;16.940;2022-12-18T04:42:41;11.70;37.90
21891;DHT22;11110;52.386;16.940;2022-12-18T04:45:11;11.70;38.00
21891;DHT22;11110;52.386;16.940;2022-12-18T04:47:40;11.70;38.00
21891;DHT22;11110;52.386;16.940;2022-12-18T04:50:09;11.70;38.00
21891;DHT22;11110;52.386;16.940;2022-12-18T04:52:38;11.70;38.10
21891;DHT22;11110;52.386;16.940;2022-12-18T04:55:06;11.70;38.00
21891;DHT22;11110;52.386;16.940;2022-12-18T04:57:35;11.70;38.00
21891;DHT22;11110;52.386;16.940;2022-12-18T05:00:04;11.70;38.00
21891;DHT22;11110;52.386;16.940;2022-12-18T05:02:35;11.70;37.90
21891;DHT22;11110;52.386;16.940;2022-12-18T05:05:04;11.70;37.90
21891;DHT22;11110;52.386;16.940;2022-12-18T05:07:33;11.70;37.90
21891;DHT22;11110;52.386;16.940;2022-12-18T05:10:02;11.70;37.90
21891;DHT22;11110;52.386;16.940;2022-12-18T05:12:38;11.70;38.00
21891;DHT22;11110;52.386;16.940;2022-12-18T05:15:27;11.70;37.90
21891;DHT22;11110;52.386;16.940;2022-12-18T05:17:58;11.70;37.90
21891;DHT22;11110;52.386;16.940;2022-12-18T05:20:27;11.70;37.90
21891;DHT22;11110;52.386;16.940;2022-12-18T05:22:56;11.70;37.80
21891;DHT22;11110;52.386;16.940;2022-12-18T05:25:25;11.70;37.80
21891;DHT22;11110;52.386;16.940;2022-12-18T05:27:54;11.70;37.80
21891;DHT22;11110;52.386;16.940;2022-12-18T05:30:22;11.70;37.70
21891;DHT22;11110;52.386;16.940;2022-12-18T05:32:51;11.70;37.80
21891;DHT22;11110;52.386;16.940;2022-12-18T05:35:21;11.70;37.70
21891;DHT22;11110;52.386;16.940;2022-12-18T05:37:49;11.70;37.70
21891;DHT22;11110;52.386;16.940;2022-12-18T05:40:18;11.60;38.30
21891;DHT22;11110;52.386;16.940;2022-12-18T05:42:46;11.60;37.60
21891;DHT22;11110;52.386;16.940;2022-12-18T05:45:15;11.60;37.70
21891;DHT22;11110;52.386;16.940;2022-12-18T05:47:43;11.60;37.70
21891;DHT22;11110;52.386;16.940;2022-12-18T05:50:12;11.60;37.70
21891;DHT22;11110;52.386;16.940;2022-12-18T05:52:42;11.60;37.70
21891;DHT22;11110;52.386;16.940;2022-12-18T05:55:10;11.60;37.90
21891;DHT22;11110;52.386;16.940;2022-12-18T05:57:39;11.60;37.80
21891;DHT22;11110;52.386;16.940;2022-12-18T06:00:08;11.60;37.90
21891;DHT22;11110;52.386;16.940;2022-12-18T06:02:40;11.60;37.90
21891;DHT22;11110;52.386;16.940;2022-12-18T06:05:08;11.60;37.80
21891;DHT22;11110;52.386;16.940;2022-12-18T06:07:38;11.60;37.70
21891;DHT22;11110;52.386;16.940;2022-12-18T06:10:08;11.70;37.70
21891;DHT22;11110;52.386;16.940;2022-12-18T06:12:37;11.70;37.60
21891;DHT22;11110;52.386;16.940;2022-12-18T06:15:07;11.60;37.60
21891;DHT22;11110;52.386;16.940;2022-12-18T06:17:36;11.60;37.60
21891;DHT22;11110;52.386;16.940;2022-12-18T06:20:06;11.60;37.60
21891;DHT22;11110;52.386;16.940;2022-12-18T06:22:34;11.60;37.60
21891;DHT22;11110;52.386;16.940;2022-12-18T06:25:04;11.50;37.60
21891;DHT22;11110;52.386;16.940;2022-12-18T06:27:35;11.70;37.60
21891;DHT22;11110;52.386;16.940;2022-12-18T06:30:05;11.60;37.50
21891;DHT22;11110;52.386;16.940;2022-12-18T06:32:33;11.50;37.60
21891;DHT22;11110;52.386;16.940;2022-12-18T06:35:02;11.50;37.60
21891;DHT22;11110;52.386;16.940;2022-12-18T06:37:31;11.50;37.50
21891;DHT22;11110;52.386;16.940;2022-12-18T06:40:00;11.50;37.50
21891;DHT22;11110;52.386;16.940;2022-12-18T06:42:29;11.50;37.60
21891;DHT22;11110;52.386;16.940;2022-12-18T06:44:58;11.50;37.50
21891;DHT22;11110;52.386;16.940;2022-12-18T06:47:27;11.50;37.40
21891;DHT22;11110;52.386;16.940;2022-12-18T06:49:55;11.50;37.30
21891;DHT22;11110;52.386;16.940;2022-12-18T06:52:24;11.50;37.30
21891;DHT22;11110;52.386;16.940;2022-12-18T06:54:52;11.50;37.30
21891;DHT22;11110;52.386;16.940;2022-12-18T06:57:21;11.50;37.30
21891;DHT22;11110;52.386;16.940;2022-12-18T06:59:50;11.50;37.40
21891;DHT22;11110;52.386;16.940;2022-12-18T07:02:20;11.50;37.40
21891;DHT22;11110;52.386;16.940;2022-12-18T07:04:49;11.50;37.40
21891;DHT22;11110;52.386;16.940;2022-12-18T07:07:18;11.50;37.50
21891;DHT22;11110;52.386;16.940;2022-12-18T07:09:46;11.50;37.60
21891;DHT22;11110;52.386;16.940;2022-12-18T07:12:14;11.40;37.60
21891;DHT22;11110;52.386;16.940;2022-12-18T07:14:43;11.40;37.70
21891;DHT22;11110;52.386;16.940;2022-12-18T07:17:11;11.40;37.70
21891;DHT22;11110;52.386;16.940;2022-12-18T07:19:41;11.50;37.70
21891;DHT22;11110;52.386;16.940;2022-12-18T07:22:10;11.40;37.60
21891;DHT22;11110;52.386;16.940;2022-12-18T07:24:38;11.30;37.70
21891;DHT22;11110;52.386;16.940;2022-12-18T07:27:07;11.10;37.90
21891;DHT22;11110;52.386;16.940;2022-12-18T07:29:36;11.10;38.20
21891;DHT22;11110;52.386;16.940;2022-12-18T07:32:05;11.00;38.30
21891;DHT22;11110;52.386;16.940;2022-12-18T07:34:34;11.00;38.40
21891;DHT22;11110;52.386;16.940;2022-12-18T07:37:04;11.00;38.40
21891;DHT22;11110;52.386;16.940;2022-12-18T07:39:32;11.00;38.50
21891;DHT22;11110;52.386;16.940;2022-12-18T07:42:01;11.00;38.50
21891;DHT22;11110;52.386;16.940;2022-12-18T07:44:48;11.00;38.60
21891;DHT22;11110;52.386;16.940;2022-12-18T07:47:16;11.00;38.60
21891;DHT22;11110;52.386;16.940;2022-12-18T07:49:45;11.00;38.70
21891;DHT22;11110;52.386;16.940;2022-12-18T07:52:15;11.00;38.70
21891;DHT22;11110;52.386;16.940;2022-12-18T07:54:50;11.10;38.70
21891;DHT22;11110;52.386;16.940;2022-12-18T07:57:18;11.00;38.60
21891;DHT22;11110;52.386;16.940;2022-12-18T08:00:08;11.00;38.60
21891;DHT22;11110;52.386;16.940;2022-12-18T08:02:39;11.00;38.60
21891;DHT22;11110;52.386;16.940;2022-12-18T08:05:09;11.00;38.50
21891;DHT22;11110;52.386;16.940;2022-12-18T08:07:39;11.00;38.50
21891;DHT22;11110;52.386;16.940;2022-12-18T08:10:08;11.00;38.60
21891;DHT22;11110;52.386;16.940;2022-12-18T08:12:37;11.10;38.70
21891;DHT22;11110;52.386;16.940;2022-12-18T08:15:06;11.00;38.60
21891;DHT22;11110;52.386;16.940;2022-12-18T08:17:34;11.00;38.70
21891;DHT22;11110;52.386;16.940;2022-12-18T08:20:03;11.10;38.70
21891;DHT22;11110;52.386;16.940;2022-12-18T08:22:34;11.10;38.80
21891;DHT22;11110;52.386;16.940;2022-12-18T08:25:08;11.10;38.60
21891;DHT22;11110;52.386;16.940;2022-12-18T08:27:37;11.10;38.60
21891;DHT22;11110;52.386;16.940;2022-12-18T08:30:06;11.10;38.60
21891;DHT22;11110;52.386;16.940;2022-12-18T08:32:35;11.10;38.70
21891;DHT22;11110;52.386;16.940;2022-12-18T08:35:05;11.10;38.80
21891;DHT22;11110;52.386;16.940;2022-12-18T08:37:35;11.10;38.80
21891;DHT22;11110;52.386;16.940;2022-12-18T08:40:04;11.10;38.90
21891;DHT22;11110;52.386;16.940;2022-12-18T08:42:34;11.10;39.00
21891;DHT22;11110;52.386;16.940;2022-12-18T08:45:20;11.10;39.00
21891;DHT22;11110;52.386;16.940;2022-12-18T08:47:49;11.20;39.10
21891;DHT22;11110;52.386;16.940;2022-12-18T08:50:17;11.20;39.00
21891;DHT22;11110;52.386;16.940;2022-12-18T08:52:46;11.20;39.00
21891;DHT22;11110;52.386;16.940;2022-12-18T08:55:15;11.20;39.00
21891;DHT22;11110;52.386;16.940;2022-12-18T08:57:47;11.20;39.00
21891;DHT22;11110;52.386;16.940;2022-12-18T09:00:16;11.20;39.00
21891;DHT22;11110;52.386;16.940;2022-12-18T09:02:45;11.30;39.80
21891;DHT22;11110;52.386;16.940;2022-12-18T09:05:14;11.30;39.20
21891;DHT22;11110;52.386;16.940;2022-12-18T09:07:42;11.30;39.20
21891;DHT22;11110;52.386;16.940;2022-12-18T09:10:11;11.20;39.20
21891;DHT22;11110;52.386;16.940;2022-12-18T09:12:39;11.30;39.20
21891;DHT22;11110;52.386;16.940;2022-12-18T09:15:11;11.30;39.20
21891;DHT22;11110;52.386;16.940;2022-12-18T09:17:39;11.20;39.20
21891;DHT22;11110;52.386;16.940;2022-12-18T09:20:09;11.30;39.40
21891;DHT22;11110;52.386;16.940;2022-12-18T09:22:37;11.30;39.40
21891;DHT22;11110;52.386;16.940;2022-12-18T09:25:06;11.40;39.40
21891;DHT22;11110;52.386;16.940;2022-12-18T09:27:36;11.30;39.40
21891;DHT22;11110;52.386;16.940;2022-12-18T09:30:05;11.40;39.60
21891;DHT22;11110;52.386;16.940;2022-12-18T09:32:36;11.40;39.60
21891;DHT22;11110;52.386;16.940;2022-12-18T09:35:04;11.50;39.60
21891;DHT22;11110;52.386;16.940;2022-12-18T09:37:33;11.50;39.70
21891;DHT22;11110;52.386;16.940;2022-12-18T09:40:02;11.50;39.70
21891;DHT22;11110;52.386;16.940;2022-12-18T09:42:30;11.50;39.80
21891;DHT22;11110;52.386;16.940;2022-12-18T09:44:59;11.60;39.80
21891;DHT22;11110;52.386;16.940;2022-12-18T09:47:32;11.60;39.70
21891;DHT22;11110;52.386;16.940;2022-12-18T09:50:06;11.60;39.70
21891;DHT22;11110;52.386;16.940;2022-12-18T09:52:46;11.60;39.80
21891;DHT22;11110;52.386;16.940;2022-12-18T09:55:22;11.70;39.80
21891;DHT22;11110;52.386;16.940;2022-12-18T09:57:54;11.70;39.80
21891;DHT22;11110;52.386;16.940;2022-12-18T10:00:25;11.70;39.80
21891;DHT22;11110;52.386;16.940;2022-12-18T10:03:00;11.80;39.80
21891;DHT22;11110;52.386;16.940;2022-12-18T10:05:35;11.80;39.70
21891;DHT22;11110;52.386;16.940;2022-12-18T10:08:10;11.90;39.80
21891;DHT22;11110;52.386;16.940;2022-12-18T10:10:46;11.90;39.70
21891;DHT22;11110;52.386;16.940;2022-12-18T10:13:23;11.90;39.70
21891;DHT22;11110;52.386;16.940;2022-12-18T10:16:08;12.00;39.70
21891;DHT22;11110;52.386;16.940;2022-12-18T10:18:59;12.00;39.60
21891;DHT22;11110;52.386;16.940;2022-12-18T10:21:36;12.10;39.60
21891;DHT22;11110;52.386;16.940;2022-12-18T10:24:15;12.10;39.50
21891;DHT22;11110;52.386;16.940;2022-12-18T10:26:48;12.10;39.50
21891;DHT22;11110;52.386;16.940;2022-12-18T10:29:17;12.10;39.40
21891;DHT22;11110;52.386;16.940;2022-12-18T10:31:45;12.10;39.50
21891;DHT22;11110;52.386;16.940;2022-12-18T10:34:14;12.10;39.40
21891;DHT22;11110;52.386;16.940;2022-12-18T10:36:43;12.20;39.50
21891;DHT22;11110;52.386;16.940;2022-12-18T10:39:16;12.20;39.50
21891;DHT22;11110;52.386;16.940;2022-12-18T10:41:45;12.30;39.50
21891;DHT22;11110;52.386;16.940;2022-12-18T10:44:17;12.30;39.40
21891;DHT22;11110;52.386;16.940;2022-12-18T10:46:48;12.30;39.40
21891;DHT22;11110;52.386;16.940;2022-12-18T10:49:23;12.30;39.30
21891;DHT22;11110;52.386;16.940;2022-12-18T10:52:07;12.40;39.40
21891;DHT22;11110;52.386;16.940;2022-12-18T10:54:47;12.40;39.50
21891;DHT22;11110;52.386;16.940;2022-12-18T10:57:27;12.40;39.60
21891;DHT22;11110;52.386;16.940;2022-12-18T10:59:59;12.40;39.50
21891;DHT22;11110;52.386;16.940;2022-12-18T11:02:34;12.40;39.60
21891;DHT22;11110;52.386;16.940;2022-12-18T11:05:23;12.50;39.50
21891;DHT22;11110;52.386;16.940;2022-12-18T11:07:55;12.50;39.40
21891;DHT22;11110;52.386;16.940;2022-12-18T11:10:29;12.50;39.40
21891;DHT22;11110;52.386;16.940;2022-12-18T11:13:10;12.50;39.50
21891;DHT22;11110;52.386;16.940;2022-12-18T11:15:40;12.60;39.50
21891;DHT22;11110;52.386;16.940;2022-12-18T11:18:17;12.50;39.50
21891;DHT22;11110;52.386;16.940;2022-12-18T11:20:52;12.60;39.40
21891;DHT22;11110;52.386;16.940;2022-12-18T11:23:27;12.50;39.50
21891;DHT22;11110;52.386;16.940;2022-12-18T11:25:58;12.60;39.50
21891;DHT22;11110;52.386;16.940;2022-12-18T11:28:46;12.60;39.50
21891;DHT22;11110;52.386;16.940;2022-12-18T11:31:21;12.60;39.50
21891;DHT22;11110;52.386;16.940;2022-12-18T11:34:00;12.60;39.50
21891;DHT22;11110;52.386;16.940;2022-12-18T11:36:49;12.60;39.60
21891;DHT22;11110;52.386;16.940;2022-12-18T11:39:24;12.60;39.60
21891;DHT22;11110;52.386;16.940;2022-12-18T11:41:57;12.70;39.60
21891;DHT22;11110;52.386;16.940;2022-12-18T11:44:47;12.70;39.50
21891;DHT22;11110;52.386;16.940;2022-12-18T11:47:22;12.70;39.40
21891;DHT22;11110;52.386;16.940;2022-12-18T11:49:55;12.70;39.40
21891;DHT22;11110;52.386;16.940;2022-12-18T11:52:26;12.70;39.40
21891;DHT22;11110;52.386;16.940;2022-12-18T11:55:00;12.60;39.40
21891;DHT22;11110;52.386;16.940;2022-12-18T11:57:35;13.20;39.60
21891;DHT22;11110;52.386;16.940;2022-12-18T12:00:11;12.50;39.20
21891;DHT22;11110;52.386;16.940;2022-12-18T12:03:06;12.40;39.30
21891;DHT22;11110;52.386;16.940;2022-12-18T12:05:47;12.50;39.20
21891;DHT22;11110;52.386;16.940;2022-12-18T12:08:26;12.50;39.20
21891;DHT22;11110;52.386;16.940;2022-12-18T12:11:07;12.60;39.20
21891;DHT22;11110;52.386;16.940;2022-12-18T12:13:46;12.60;39.20
21891;DHT22;11110;52.386;16.940;2022-12-18T12:16:19;12.70;39.20
21891;DHT22;11110;52.386;16.940;2022-12-18T12:19:02;12.70;39.20
21891;DHT22;11110;52.386;16.940;2022-12-18T12:21:39;12.70;39.10
21891;DHT22;11110;52.386;16.940;2022-12-18T12:24:22;12.70;39.10
21891;DHT22;11110;52.386;16.940;2022-12-18T12:27:01;12.70;39.20
21891;DHT22;11110;52.386;16.940;2022-12-18T12:29:43;12.70;39.10
21891;DHT22;11110;52.386;16.940;2022-12-18T12:32:24;12.60;39.10
21891;DHT22;11110;52.386;16.940;2022-12-18T12:35:08;12.80;39.00
21891;DHT22;11110;52.386;16.940;2022-12-18T12:37:44;12.70;39.10
21891;DHT22;11110;52.386;16.940;2022-12-18T12:40:20;12.70;39.10
21891;DHT22;11110;52.386;16.940;2022-12-18T12:43:21;12.70;39.00
21891;DHT22;11110;52.386;16.940;2022-12-18T12:45:54;12.60;39.10
21891;DHT22;11110;52.386;16.940;2022-12-18T12:48:33;12.60;39.00
21891;DHT22;11110;52.386;16.940;2022-12-18T12:51:08;12.70;39.00
21891;DHT22;11110;52.386;16.940;2022-12-18T12:53:38;12.70;38.90
21891;DHT22;11110;52.386;16.940;2022-12-18T12:56:12;12.60;39.00
21891;DHT22;11110;52.386;16.940;2022-12-18T12:58:52;12.70;39.10
21891;DHT22;11110;52.386;16.940;2022-12-18T13:01:28;12.80;39.00
21891;DHT22;11110;52.386;16.940;2022-12-18T13:04:14;12.80;39.00
21891;DHT22;11110;52.386;16.940;2022-12-18T13:06:50;12.60;38.90
21891;DHT22;11110;52.386;16.940;2022-12-18T13:09:22;12.60;39.50
21891;DHT22;11110;52.386;16.940;2022-12-18T13:11:50;12.60;38.90
21891;DHT22;11110;52.386;16.940;2022-12-18T13:14:52;12.50;38.90
21891;DHT22;11110;52.386;16.940;2022-12-18T13:17:28;12.50;39.00
21891;DHT22;11110;52.386;16.940;2022-12-18T13:20:11;12.60;39.10
21891;DHT22;11110;52.386;16.940;2022-12-18T13:22:45;12.50;38.90
21891;DHT22;11110;52.386;16.940;2022-12-18T13:25:34;12.40;38.90
21891;DHT22;11110;52.386;16.940;2022-12-18T13:28:09;12.40;38.90
21891;DHT22;11110;52.386;16.940;2022-12-18T13:30:46;12.20;38.90
21891;DHT22;11110;52.386;16.940;2022-12-18T13:36:31;12.00;39.30
21891;DHT22;11110;52.386;16.940;2022-12-18T13:39:31;12.00;39.40
21891;DHT22;11110;52.386;16.940;2022-12-18T13:45:39;12.00;39.50
21891;DHT22;11110;52.386;16.940;2022-12-18T13:48:22;12.00;39.50
21891;DHT22;11110;52.386;16.940;2022-12-18T13:50:58;12.00;39.50
21891;DHT22;11110;52.386;16.940;2022-12-18T13:53:29;12.10;39.40
21891;DHT22;11110;52.386;16.940;2022-12-18T13:55:58;12.10;39.50
21891;DHT22;11110;52.386;16.940;2022-12-18T13:58:27;12.10;39.50
21891;DHT22;11110;52.386;16.940;2022-12-18T14:00:56;12.10;39.70
21891;DHT22;11110;52.386;16.940;2022-12-18T14:03:28;12.20;39.60
21891;DHT22;11110;52.386;16.940;2022-12-18T14:06:06;12.10;39.50
21891;DHT22;11110;52.386;16.940;2022-12-18T14:08:38;12.20;39.50
21891;DHT22;11110;52.386;16.940;2022-12-18T14:11:19;12.10;40.00
21891;DHT22;11110;52.386;16.940;2022-12-18T14:13:49;12.20;39.30
21891;DHT22;11110;52.386;16.940;2022-12-18T14:16:18;12.20;39.40
21891;DHT22;11110;52.386;16.940;2022-12-18T14:18:52;12.10;39.30
21891;DHT22;11110;52.386;16.940;2022-12-18T14:21:26;12.10;39.20
21891;DHT22;11110;52.386;16.940;2022-12-18T14:24:12;12.20;39.10
21891;DHT22;11110;52.386;16.940;2022-12-18T14:26:44;12.20;39.00
21891;DHT22;11110;52.386;16.940;2022-12-18T14:29:22;12.30;39.00
21891;DHT22;11110;52.386;16.940;2022-12-18T14:32:05;12.30;38.90
21891;DHT22;11110;52.386;16.940;2022-12-18T14:34:44;12.30;38.90
21891;DHT22;11110;52.386;16.940;2022-12-18T14:37:14;12.30;38.90
21891;DHT22;11110;52.386;16.940;2022-12-18T14:39:53;12.30;38.80
21891;DHT22;11110;52.386;16.940;2022-12-18T14:42:22;12.30;38.80
21891;DHT22;11110;52.386;16.940;2022-12-18T14:45:32;12.20;38.80
21891;DHT22;11110;52.386;16.940;2022-12-18T14:48:12;12.10;38.80
21891;DHT22;11110;52.386;16.940;2022-12-18T14:50:59;12.00;38.80
21891;DHT22;11110;52.386;16.940;2022-12-18T14:53:34;11.90;38.90
21891;DHT22;11110;52.386;16.940;2022-12-18T14:56:10;11.80;39.00
21891;DHT22;11110;52.386;16.940;2022-12-18T14:58:45;11.80;39.00
21891;DHT22;11110;52.386;16.940;2022-12-18T15:01:23;11.70;39.20
21891;DHT22;11110;52.386;16.940;2022-12-18T15:03:53;11.60;39.20
21891;DHT22;11110;52.386;16.940;2022-12-18T15:06:32;11.70;39.60
21891;DHT22;11110;52.386;16.940;2022-12-18T15:09:03;11.70;39.50
21891;DHT22;11110;52.386;16.940;2022-12-18T15:11:44;11.50;39.50
21891;DHT22;11110;52.386;16.940;2022-12-18T15:14:33;11.40;40.40
21891;DHT22;11110;52.386;16.940;2022-12-18T15:17:05;11.40;39.90
21891;DHT22;11110;52.386;16.940;2022-12-18T15:19:38;11.50;39.90
21891;DHT22;11110;52.386;16.940;2022-12-18T15:22:18;11.50;39.80
21891;DHT22;11110;52.386;16.940;2022-12-18T15:24:48;11.60;39.80
21891;DHT22;11110;52.386;16.940;2022-12-18T15:27:23;11.70;39.70
21891;DHT22;11110;52.386;16.940;2022-12-18T15:30:15;11.80;39.60
21891;DHT22;11110;52.386;16.940;2022-12-18T15:32:45;11.90;39.50
21891;DHT22;11110;52.386;16.940;2022-12-18T15:35:17;11.70;39.30
21891;DHT22;11110;52.386;16.940;2022-12-18T15:37:48;11.60;39.40
21891;DHT22;11110;52.386;16.940;2022-12-18T15:40:19;11.50;39.60
21891;DHT22;11110;52.386;16.940;2022-12-18T15:42:48;11.60;39.80
21891;DHT22;11110;52.386;16.940;2022-12-18T15:45:37;11.50;39.70
21891;DHT22;11110;52.386;16.940;2022-12-18T15:48:21;11.60;39.60
21891;DHT22;11110;52.386;16.940;2022-12-18T15:50:51;11.50;39.50
21891;DHT22;11110;52.386;16.940;2022-12-18T15:53:21;11.60;39.60
21891;DHT22;11110;52.386;16.940;2022-12-18T15:55:50;11.60;39.30
21891;DHT22;11110;52.386;16.940;2022-12-18T15:58:36;11.50;39.40